createdAt,value
2024-01-27T00:00:39.641Z,3.08
2024-01-27T00:03:41.360Z,3.35
2024-01-27T00:06:43.186Z,3.70
2024-01-27T00:09:44.920Z,3.30
2024-01-27T00:12:46.593Z,2.63
2024-01-27T00:15:48.172Z,2.63
2024-01-27T00:18:49.785Z,3.00
2024-01-27T00:21:51.507Z,3.47
2024-01-27T00:24:53.451Z,2.67
2024-01-27T00:27:55.011Z,2.03
2024-01-27T00:30:56.580Z,2.03
2024-01-27T00:33:58.318Z,1.80
2024-01-27T00:36:59.933Z,1.40
2024-01-27T00:40:01.657Z,1.55
2024-01-27T00:43:04.272Z,1.38
2024-01-27T00:46:05.766Z,1.50
2024-01-27T00:49:07.791Z,1.03
2024-01-27T00:52:09.403Z,1.40
2024-01-27T00:55:11.429Z,1.00
2024-01-27T00:58:12.987Z,1.30
2024-01-27T01:01:14.582Z,1.10
2024-01-27T01:04:16.194Z,1.20
2024-01-27T01:07:17.880Z,1.47
2024-01-27T01:10:19.578Z,1.50
2024-01-27T01:13:22.299Z,1.35
2024-01-27T01:16:23.957Z,1.77
2024-01-27T01:19:25.546Z,1.20
2024-01-27T01:22:27.324Z,1.50
2024-01-27T01:25:29.885Z,1.35
2024-01-27T01:28:33.572Z,1.65
2024-01-27T01:31:35.156Z,1.35
2024-01-27T01:34:37.057Z,1.50
2024-01-27T01:37:38.747Z,1.40
2024-01-27T01:40:40.328Z,1.40
2024-01-27T01:43:41.908Z,1.40
2024-01-27T01:46:43.726Z,1.30
2024-01-27T01:49:45.371Z,1.30
2024-01-27T01:52:51.809Z,1.27
2024-01-27T01:55:53.930Z,1.23
2024-01-27T01:58:55.750Z,1.00
2024-01-27T02:01:57.285Z,1.45
2024-01-27T02:04:58.964Z,1.30
2024-01-27T02:08:01.706Z,1.20
2024-01-27T02:11:04.063Z,0.98
2024-01-27T02:14:05.801Z,1.25
2024-01-27T02:17:07.487Z,1.10
2024-01-27T02:20:09.444Z,1.08
2024-01-27T02:23:11.173Z,1.03
2024-01-27T02:26:12.695Z,1.08
2024-01-27T02:29:14.239Z,0.90
2024-01-27T02:32:15.763Z,1.00
2024-01-27T02:35:17.631Z,0.90
2024-01-27T02:38:19.213Z,1.10
2024-01-27T02:41:20.720Z,1.10
2024-01-27T02:44:22.213Z,1.00
2024-01-27T02:47:23.965Z,1.40
2024-01-27T02:50:25.918Z,0.83
2024-01-27T02:53:27.399Z,0.53
2024-01-27T02:56:28.961Z,1.00
2024-01-27T02:59:30.502Z,0.90
2024-01-27T03:02:32.187Z,0.80
2024-01-27T03:05:33.786Z,0.60
2024-01-27T03:08:35.346Z,0.80
2024-01-27T03:11:36.980Z,0.80
2024-01-27T03:14:38.495Z,0.88
2024-01-27T03:17:40.893Z,0.90
2024-01-27T03:20:42.565Z,0.80
2024-01-27T03:23:44.347Z,0.90
2024-01-27T03:26:45.870Z,0.80
2024-01-27T03:29:47.501Z,1.23
2024-01-27T03:32:51.900Z,0.95
2024-01-27T03:35:53.575Z,0.90
2024-01-27T03:38:56.352Z,0.67
2024-01-27T03:41:58.000Z,1.10
2024-01-27T03:44:59.541Z,1.02
2024-01-27T03:48:01.237Z,0.80
2024-01-27T03:51:03.748Z,1.10
2024-01-27T03:54:05.780Z,1.30
2024-01-27T03:57:07.432Z,1.13
2024-01-27T04:00:09.801Z,1.23
2024-01-27T04:03:11.595Z,1.20
2024-01-27T04:06:13.302Z,1.20
2024-01-27T04:09:15.022Z,1.00
2024-01-27T04:12:16.709Z,0.90
2024-01-27T04:15:18.293Z,1.10
2024-01-27T04:18:20.052Z,1.30
2024-01-27T04:21:21.913Z,1.10
2024-01-27T04:24:23.390Z,1.57
2024-01-27T04:27:25.043Z,1.10
2024-01-27T04:30:26.692Z,1.15
2024-01-27T04:33:28.501Z,1.00
2024-01-27T04:36:30.709Z,1.10
2024-01-27T04:39:32.516Z,0.97
2024-01-27T04:42:39.463Z,0.90
2024-01-27T04:45:41.359Z,1.00
2024-01-27T04:48:43.399Z,1.10
2024-01-27T04:51:45.043Z,0.90
2024-01-27T04:54:46.557Z,1.27
2024-01-27T04:57:48.133Z,1.02
2024-01-27T05:00:49.772Z,0.90
2024-01-27T05:03:51.640Z,1.00
2024-01-27T05:06:53.703Z,1.30
2024-01-27T05:09:55.356Z,1.00
2024-01-27T05:12:57.432Z,0.80
2024-01-27T05:15:59.034Z,1.05
2024-01-27T05:19:00.649Z,1.00
2024-01-27T05:22:02.281Z,1.03
2024-01-27T05:25:05.709Z,0.80
2024-01-27T05:28:07.420Z,0.80
2024-01-27T05:31:09.885Z,0.88
2024-01-27T05:34:12.514Z,1.05
2024-01-27T05:37:14.444Z,0.90
2024-01-27T05:40:16.187Z,0.90
2024-01-27T05:43:17.862Z,0.73
2024-01-27T05:46:19.565Z,1.13
2024-01-27T05:49:21.307Z,1.08
2024-01-27T05:52:25.169Z,1.50
2024-01-27T05:55:27.349Z,0.90
2024-01-27T05:58:29.015Z,0.75
2024-01-27T06:01:30.844Z,0.88
2024-01-27T06:04:32.801Z,0.90
2024-01-27T06:07:34.545Z,0.80
2024-01-27T06:10:37.681Z,1.03
2024-01-27T06:13:40.203Z,0.80
2024-01-27T06:16:41.721Z,0.90
2024-01-27T06:19:43.388Z,0.98
2024-01-27T06:22:45.038Z,0.90
2024-01-27T06:25:46.584Z,1.20
2024-01-27T06:28:48.094Z,1.35
2024-01-27T06:31:49.642Z,1.15
2024-01-27T06:34:51.301Z,1.08
2024-01-27T06:37:52.847Z,1.00
2024-01-27T06:40:54.785Z,1.20
2024-01-27T06:43:56.534Z,1.05
2024-01-27T06:46:58.061Z,0.85
2024-01-27T06:49:59.550Z,0.93
2024-01-27T06:53:01.908Z,1.30
2024-01-27T06:56:03.756Z,1.13
2024-01-27T06:59:05.540Z,1.00
2024-01-27T07:02:08.800Z,1.10
2024-01-27T07:05:10.879Z,1.17
2024-01-27T07:08:12.477Z,1.00
2024-01-27T07:11:14.172Z,1.20
2024-01-27T07:14:15.921Z,1.10
2024-01-27T07:17:17.609Z,1.40
2024-01-27T07:20:19.152Z,0.93
2024-01-27T07:23:20.697Z,1.17
2024-01-27T07:26:22.758Z,1.20
2024-01-27T07:29:24.271Z,1.02
2024-01-27T07:32:27.389Z,1.20
2024-01-27T07:35:28.940Z,1.33
2024-01-27T07:38:30.470Z,1.40
2024-01-27T07:41:32.713Z,1.20
2024-01-27T07:44:34.401Z,1.10
2024-01-27T07:47:36.050Z,1.00
2024-01-27T07:50:37.649Z,1.23
2024-01-27T07:53:39.150Z,1.20
2024-01-27T07:56:40.811Z,1.57
2024-01-27T07:59:42.359Z,0.80
2024-01-27T08:02:44.059Z,1.40
2024-01-27T08:05:45.624Z,1.08
2024-01-27T08:08:48.500Z,1.10
2024-01-27T08:11:53.089Z,0.83
2024-01-27T08:14:55.053Z,1.00
2024-01-27T08:17:56.762Z,1.35
2024-01-27T08:20:58.425Z,1.10
2024-01-27T08:24:00.105Z,1.00
2024-01-27T08:27:02.469Z,0.90
2024-01-27T08:30:04.576Z,0.93
2024-01-27T08:33:06.406Z,0.88
2024-01-27T08:36:08.337Z,1.00
2024-01-27T08:39:10.198Z,0.80
2024-01-27T08:42:12.565Z,0.87
2024-01-27T08:45:14.442Z,1.00
2024-01-27T08:48:17.682Z,1.05
2024-01-27T08:51:19.443Z,1.00
2024-01-27T08:54:21.042Z,1.00
2024-01-27T08:57:22.714Z,1.23
2024-01-27T09:00:24.614Z,1.08
2024-01-27T09:03:26.161Z,1.10
2024-01-27T09:06:31.776Z,1.10
2024-01-27T09:09:33.840Z,1.10
2024-01-27T09:12:37.718Z,1.10
2024-01-27T09:15:39.391Z,0.88
2024-01-27T09:18:41.099Z,1.00
2024-01-27T09:21:42.830Z,1.10
2024-01-27T09:24:44.656Z,1.38
2024-01-27T09:27:46.282Z,1.10
2024-01-27T09:30:47.957Z,1.20
2024-01-27T09:33:53.603Z,1.42
2024-01-27T09:36:55.469Z,1.25
2024-01-27T09:39:57.141Z,1.30
2024-01-27T09:43:01.737Z,1.40
2024-01-27T09:46:04.650Z,1.15
2024-01-27T09:49:07.092Z,1.30
2024-01-27T09:52:09.343Z,1.10
2024-01-27T09:55:11.773Z,1.10
2024-01-27T09:58:15.350Z,1.20
2024-01-27T10:01:19.162Z,1.20
2024-01-27T10:04:24.286Z,1.10
2024-01-27T10:07:26.085Z,1.40
2024-01-27T10:10:27.644Z,1.30
2024-01-27T10:13:29.150Z,1.10
2024-01-27T10:16:41.195Z,1.25
2024-01-27T10:19:45.251Z,1.30
2024-01-27T10:22:47.528Z,1.23
2024-01-27T10:25:49.875Z,1.30
2024-01-27T10:28:58.420Z,1.20
2024-01-27T10:32:10.431Z,1.00
2024-01-27T10:35:12.645Z,1.00
2024-01-27T10:38:14.181Z,1.23
2024-01-27T10:41:25.671Z,1.10
2024-01-27T10:44:30.330Z,1.10
2024-01-27T10:47:33.821Z,1.08
2024-01-27T10:50:41.839Z,1.20
2024-01-27T10:53:50.081Z,1.20
2024-01-27T10:56:54.385Z,1.20
2024-01-27T10:59:57.746Z,1.20
2024-01-27T11:03:02.649Z,1.00
2024-01-27T11:06:06.567Z,1.20
2024-01-27T11:09:09.743Z,1.10
2024-01-27T11:12:12.621Z,1.15
2024-01-27T11:15:14.626Z,1.13
2024-01-27T11:18:16.700Z,1.40
2024-01-27T11:21:18.848Z,1.30
2024-01-27T11:24:24.674Z,1.10
2024-01-27T11:27:30.535Z,1.25
2024-01-27T11:30:35.378Z,1.30
2024-01-27T11:33:49.803Z,1.30
2024-01-27T11:36:51.590Z,1.30
2024-01-27T11:39:53.647Z,1.20
2024-01-27T11:42:59.758Z,1.50
2024-01-27T11:46:02.722Z,1.27
2024-01-27T11:49:05.861Z,1.08
2024-01-27T11:52:08.079Z,1.30
2024-01-27T11:55:09.711Z,1.02
2024-01-27T11:58:11.268Z,0.90
2024-01-27T12:01:12.929Z,1.60
2024-01-27T12:04:15.888Z,1.27
2024-01-27T12:07:20.552Z,1.23
2024-01-27T12:10:22.613Z,0.90
2024-01-27T12:13:24.384Z,1.05
2024-01-27T12:16:26.652Z,1.30
2024-01-27T12:19:28.389Z,1.20
2024-01-27T12:22:31.053Z,1.40
2024-01-27T12:25:32.943Z,1.30
2024-01-27T12:28:38.800Z,1.27
2024-01-27T12:31:40.614Z,1.30
2024-01-27T12:34:43.730Z,1.10
2024-01-27T12:37:45.417Z,1.10
2024-01-27T12:40:47.015Z,1.00
2024-01-27T12:43:48.676Z,1.60
2024-01-27T12:46:50.307Z,1.60
2024-01-27T12:49:52.011Z,1.30
2024-01-27T12:52:53.639Z,1.10
2024-01-27T12:55:55.214Z,1.13
2024-01-27T12:58:56.922Z,1.60
2024-01-27T13:01:58.494Z,1.30
2024-01-27T13:05:00.025Z,1.20
2024-01-27T13:08:01.621Z,1.30
2024-01-27T13:11:03.930Z,1.30
2024-01-27T13:14:07.351Z,0.90
2024-01-27T13:17:09.117Z,1.27
2024-01-27T13:20:11.464Z,1.50
2024-01-27T13:23:13.173Z,1.65
2024-01-27T13:26:18.705Z,1.17
2024-01-27T13:29:21.411Z,1.40
2024-01-27T13:32:22.918Z,1.10
2024-01-27T13:35:24.665Z,1.40
2024-01-27T13:38:27.251Z,1.85
2024-01-27T13:41:29.259Z,1.38
2024-01-27T13:44:31.301Z,1.40
2024-01-27T13:47:33.001Z,1.53
2024-01-27T13:50:34.912Z,1.30
2024-01-27T13:53:46.147Z,1.52
2024-01-27T13:56:49.271Z,1.60
2024-01-27T13:59:51.203Z,1.20
2024-01-27T14:02:52.786Z,1.30
2024-01-27T14:05:54.485Z,1.55
2024-01-27T14:08:56.363Z,1.55
2024-01-27T14:11:58.196Z,1.20
2024-01-27T14:15:07.948Z,1.10
2024-01-27T14:18:11.039Z,1.53
2024-01-27T14:21:14.946Z,1.30
2024-01-27T14:24:16.602Z,1.17
2024-01-27T14:27:19.258Z,1.25
2024-01-27T14:30:20.908Z,1.10
2024-01-27T14:33:24.483Z,1.37
2024-01-27T14:36:26.967Z,1.42
2024-01-27T14:39:28.600Z,1.67
2024-01-27T14:42:32.634Z,1.20
2024-01-27T14:45:36.678Z,1.43
2024-01-27T14:48:38.925Z,1.30
2024-01-27T14:51:40.639Z,1.70
2024-01-27T14:54:42.357Z,1.45
2024-01-27T14:57:44.099Z,1.40
2024-01-27T15:00:45.813Z,1.50
2024-01-27T15:03:47.381Z,1.00
2024-01-27T15:06:49.098Z,1.30
2024-01-27T15:09:50.658Z,1.13
2024-01-27T15:12:52.248Z,1.20
2024-01-27T15:15:54.105Z,1.47
2024-01-27T15:18:56.274Z,1.37
2024-01-27T15:21:57.794Z,1.20
2024-01-27T15:24:59.455Z,1.48
2024-01-27T15:28:02.303Z,1.58
2024-01-27T15:31:03.962Z,1.30
2024-01-27T15:34:07.893Z,1.90
2024-01-27T15:37:10.692Z,1.50
2024-01-27T15:40:13.794Z,1.60
2024-01-27T15:43:15.384Z,1.27
2024-01-27T15:46:16.989Z,1.50
2024-01-27T15:49:20.738Z,1.20
2024-01-27T15:52:22.388Z,1.50
2024-01-27T15:55:24.811Z,1.38
2024-01-27T15:58:26.436Z,1.60
2024-01-27T16:01:28.032Z,1.67
2024-01-27T16:04:30.308Z,2.13
2024-01-27T16:07:32.090Z,1.75
2024-01-27T16:10:33.624Z,1.77
2024-01-27T16:13:36.798Z,1.67
2024-01-27T16:16:38.428Z,1.50
2024-01-27T16:19:40.180Z,1.50
2024-01-27T16:22:41.892Z,1.55
2024-01-27T16:25:43.582Z,1.75
2024-01-27T16:28:45.509Z,1.65
2024-01-27T16:31:47.217Z,1.27
2024-01-27T16:34:48.921Z,1.67
2024-01-27T16:37:50.534Z,2.10
2024-01-27T16:40:52.054Z,1.70
2024-01-27T16:43:54.531Z,2.13
2024-01-27T16:46:56.033Z,1.20
2024-01-27T16:49:57.592Z,1.90
2024-01-27T16:52:59.444Z,1.92
2024-01-27T16:56:01.892Z,1.80
2024-01-27T16:59:04.878Z,1.42
2024-01-27T17:02:07.859Z,2.20
2024-01-27T17:05:10.075Z,1.80
2024-01-27T17:08:11.974Z,1.70
2024-01-27T17:11:13.794Z,1.90
2024-01-27T17:14:15.341Z,1.95
2024-01-27T17:17:17.560Z,2.17
2024-01-27T17:20:19.358Z,1.80
2024-01-27T17:23:21.163Z,2.08
2024-01-27T17:26:22.863Z,1.83
2024-01-27T17:29:24.486Z,2.20
2024-01-27T17:32:28.597Z,2.17
2024-01-27T17:35:30.551Z,1.90
2024-01-27T17:38:32.267Z,2.10
2024-01-27T17:41:33.870Z,1.95
2024-01-27T17:44:35.414Z,2.33
2024-01-27T17:47:37.990Z,1.93
2024-01-27T17:50:40.123Z,1.63
2024-01-27T17:53:41.593Z,2.35
2024-01-27T17:56:43.222Z,2.08
2024-01-27T17:59:44.777Z,1.17
2024-01-27T18:02:47.582Z,2.27
2024-01-27T18:05:51.029Z,2.00
2024-01-27T18:08:52.837Z,2.30
2024-01-27T18:11:54.856Z,2.30
2024-01-27T18:14:56.407Z,2.25
2024-01-27T18:17:58.123Z,2.00
2024-01-27T18:20:59.852Z,2.20
2024-01-27T18:24:01.953Z,2.20
2024-01-27T18:27:04.339Z,1.70
2024-01-27T18:30:09.888Z,2.35
2024-01-27T18:33:12.047Z,2.07
2024-01-27T18:36:13.799Z,1.90
2024-01-27T18:39:20.836Z,1.63
2024-01-27T18:42:22.661Z,1.63
2024-01-27T18:45:24.883Z,2.15
2024-01-27T18:48:27.083Z,2.10
2024-01-27T18:51:28.829Z,2.10
2024-01-27T18:54:30.390Z,1.65
2024-01-27T18:57:32.089Z,1.70
2024-01-27T19:00:37.353Z,2.20
2024-01-27T19:03:40.146Z,1.67
2024-01-27T19:06:43.340Z,2.97
2024-01-27T19:09:45.082Z,2.40
2024-01-27T19:12:46.607Z,1.80
2024-01-27T19:15:52.609Z,2.53
2024-01-27T19:18:54.500Z,2.67
2024-01-27T19:21:56.388Z,2.27
2024-01-27T19:24:57.965Z,2.03
2024-01-27T19:28:02.376Z,1.65
2024-01-27T19:31:05.011Z,1.60
2024-01-27T19:34:06.691Z,1.47
2024-01-27T19:37:08.357Z,1.70
2024-01-27T19:40:10.947Z,2.00
2024-01-27T19:43:12.529Z,2.20
2024-01-27T19:46:14.877Z,2.72
2024-01-27T19:49:16.678Z,2.47
2024-01-27T19:52:18.366Z,2.17
2024-01-27T19:55:20.032Z,2.42
2024-01-27T19:58:24.299Z,2.38
2024-01-27T20:01:26.000Z,2.40
2024-01-27T20:04:27.817Z,2.00
2024-01-27T20:07:32.310Z,2.23
2024-01-27T20:10:33.965Z,2.10
2024-01-27T20:13:35.825Z,2.20
2024-01-27T20:16:37.345Z,1.80
2024-01-27T20:19:39.402Z,2.40
2024-01-27T20:22:41.301Z,2.33
2024-01-27T20:25:42.957Z,1.95
2024-01-27T20:28:44.507Z,2.13
2024-01-27T20:31:46.061Z,2.20
2024-01-27T20:34:47.960Z,3.00
2024-01-27T20:37:49.997Z,2.30
2024-01-27T20:40:51.676Z,2.28
2024-01-27T20:43:53.316Z,2.47
2024-01-27T20:46:54.825Z,2.55
2024-01-27T20:49:56.504Z,2.60
2024-01-27T20:52:58.348Z,1.70
2024-01-27T20:55:59.911Z,2.45
2024-01-27T20:59:01.630Z,2.42
2024-01-27T21:02:04.200Z,2.35
2024-01-27T21:05:06.042Z,2.70
2024-01-27T21:08:07.719Z,2.40
2024-01-27T21:11:14.589Z,2.55
2024-01-27T21:14:16.161Z,1.92
2024-01-27T21:17:17.709Z,2.80
2024-01-27T21:20:19.416Z,2.50
2024-01-27T21:23:20.902Z,2.30
2024-01-27T21:26:22.459Z,2.60
2024-01-27T21:29:24.003Z,2.78
2024-01-27T21:32:25.771Z,2.90
2024-01-27T21:35:27.330Z,2.40
2024-01-27T21:38:28.803Z,2.10
2024-01-27T21:41:30.351Z,2.70
2024-01-27T21:44:31.862Z,2.47
2024-01-27T21:47:34.047Z,2.50
2024-01-27T21:50:36.562Z,2.60
2024-01-27T21:53:39.799Z,2.93
2024-01-27T21:56:41.358Z,2.20
2024-01-27T21:59:42.906Z,2.28
2024-01-27T22:02:46.500Z,2.53
2024-01-27T22:05:48.083Z,2.67
2024-01-27T22:08:50.153Z,2.00
2024-01-27T22:11:52.619Z,2.80
2024-01-27T22:14:54.233Z,2.30
2024-01-27T22:17:55.801Z,2.42
2024-01-27T22:20:57.447Z,2.70
2024-01-27T22:23:59.994Z,3.00
2024-01-27T22:27:02.153Z,3.10
2024-01-27T22:30:05.068Z,2.70
2024-01-27T22:33:08.827Z,2.60
2024-01-27T22:36:14.153Z,3.30
2024-01-27T22:39:15.834Z,2.70
2024-01-27T22:42:17.672Z,2.83
2024-01-27T22:45:21.922Z,2.85
2024-01-27T22:48:23.573Z,2.42
2024-01-27T22:51:26.142Z,2.33
2024-01-27T22:54:27.868Z,2.80
2024-01-27T22:57:30.569Z,2.78
2024-01-27T23:00:35.356Z,2.65
2024-01-27T23:03:37.051Z,2.33
2024-01-27T23:06:38.641Z,2.55
2024-01-27T23:09:40.294Z,2.43
2024-01-27T23:12:42.112Z,2.10
2024-01-27T23:15:45.320Z,2.10
2024-01-27T23:18:47.081Z,2.83
2024-01-27T23:21:48.750Z,2.27
2024-01-27T23:24:50.432Z,2.73
2024-01-27T23:27:52.038Z,2.33
2024-01-27T23:30:53.663Z,2.42
2024-01-27T23:33:55.493Z,2.33
2024-01-27T23:36:57.108Z,2.37
2024-01-27T23:39:59.720Z,1.73
2024-01-27T23:43:01.240Z,2.72
2024-01-27T23:46:02.790Z,2.33
2024-01-27T23:49:04.702Z,2.58
2024-01-27T23:52:10.780Z,2.47
2024-01-27T23:55:13.828Z,1.97
2024-01-27T23:58:19.556Z,2.28
